Terminal Aerodrome Forecast
Issued by NWS

Home | Current Version | Previous Version | Text Only | Print | Product List | Glossary On
Versions: 1 2 3 4 5 6 7 8 9 10 11 12 13 14 15 16 17 18 19 20 21 22 23 24 25 26 27 28 29 30 31 32 33 34 35 36 37 38 39 40 41 42 43 44
000
FTUS41 KALY 252104 AAC
TAFPSF
TAF AMD
KPSF 252104Z 2521/2618 31005KT 6SM -RA BR SCT002 BKN006 OVC012
      TEMPO 2521/2523 4SM BR BKN002 OVC006
     FM260000 35004KT P6SM SCT008 OVC015
     FM260600 05004KT 4SM BR FEW250
     FM261100 09005KT P6SM BKN070 PROB30 2616/2618 4SM -FZRA OVC007=

USA.gov is the U.S. government's official web portal to all federal, state and local government web resources and services.